Time;durP1;ratioP1;P1;durP2;ratioP2;P2;SDS_P1;SDS_P2;PMS_P1;PMS_P2;Temp;Humidity;BMP_temperature;BMP_pressure;BME280_temperature;BME280_humidity;BME280_pressure;Samples;Min_cycle;Max_cycle;Signal;HPM_P1;HPM_P2
2023/10/09 00:02:20;;;;;;;48.42;22.08;;;5.30;99.90;;;;;;12767201;23;20172;-89
2023/10/09 00:07:30;;;;;;;46.08;22.15;;;5.40;99.90;;;;;;12789510;23;20254;-89
2023/10/09 00:12:32;;;;;;;45.50;21.63;;;5.50;99.90;;;;;;12762901;23;20196;-89
2023/10/09 00:17:38;;;;;;;41.07;20.83;;;5.40;99.90;;;;;;12789952;23;20172;-88
2023/10/09 00:22:45;;;;;;;33.13;14.63;;;5.50;99.90;;;;;;12789592;23;20171;-89
2023/10/09 00:27:48;;;;;;;26.87;16.70;;;5.40;99.90;;;;;;12787511;23;20238;-89
2023/10/09 00:33:00;;;;;;;26.00;14.43;;;5.70;99.90;;;;;;12762268;23;20199;-88
2023/10/09 00:43:29;;;;;;;24.05;12.77;;;5.80;99.90;;;;;;12765790;23;20175;-89
2023/10/09 00:48:37;;;;;;;19.95;11.93;;;5.80;99.90;;;;;;12767937;23;20184;-88
2023/10/09 00:53:40;;;;;;;26.42;13.10;;;5.90;99.90;;;;;;12767447;23;20534;-88
2023/10/09 00:58:43;;;;;;;20.35;11.35;;;6.10;99.90;;;;;;12767511;23;20202;-88
2023/10/09 01:03:45;;;;;;;18.17;10.80;;;6.10;99.90;;;;;;12812065;23;20168;-88
2023/10/09 01:08:56;;;;;;;14.87;9.37;;;6.60;99.90;;;;;;12793196;23;20627;-88
2023/10/09 01:19:17;;;;;;;16.63;8.93;;;6.30;99.90;;;;;;12794205;23;20168;-88
2023/10/09 01:24:22;;;;;;;17.65;10.60;;;6.30;99.90;;;;;;12766465;23;20275;-88
2023/10/09 01:29:29;;;;;;;14.05;8.98;;;6.70;99.90;;;;;;12793740;23;20856;-88
2023/10/09 01:34:48;;;;;;;14.55;9.52;;;6.50;99.90;;;;;;12812500;23;20192;-88
2023/10/09 01:39:52;;;;;;;11.70;8.38;;;6.40;99.90;;;;;;12811459;23;20167;-88
2023/10/09 01:44:55;;;;;;;17.55;9.55;;;6.40;99.90;;;;;;12767511;23;20191;-88
2023/10/09 01:49:57;;;;;;;14.68;7.90;;;6.20;99.90;;;;;;12767383;23;20199;-88
2023/10/09 01:55:06;;;;;;;12.15;7.82;;;6.30;99.90;;;;;;12793513;23;20163;-88
2023/10/09 02:00:16;;;;;;;15.57;8.83;;;6.30;99.90;;;;;;12767198;23;20183;-88
2023/10/09 02:10:31;;;;;;;14.38;7.30;;;6.60;99.90;;;;;;12793891;23;20664;-87
2023/10/09 02:20:55;;;;;;;11.00;7.40;;;6.70;99.90;;;;;;12810472;23;20168;-87
2023/10/09 02:26:01;;;;;;;15.07;7.23;;;6.60;99.90;;;;;;12792844;23;20566;-88
2023/10/09 02:31:11;;;;;;;14.67;7.80;;;6.70;99.90;;;;;;12766311;23;20222;-88
2023/10/09 02:36:14;;;;;;;11.67;6.43;;;6.60;99.90;;;;;;12766571;23;20175;-87
2023/10/09 02:46:30;;;;;;;11.13;6.70;;;6.80;99.90;;;;;;12765485;23;20662;-88
2023/10/09 02:51:33;;;;;;;9.73;6.63;;;6.90;99.90;;;;;;12810969;23;20242;-88
2023/10/09 02:56:37;;;;;;;10.38;7.28;;;7.00;99.90;;;;;;12766135;23;20176;-88
2023/10/09 03:01:40;;;;;;;11.33;8.07;;;7.30;99.90;;;;;;12792567;23;20908;-88
2023/10/09 03:06:49;;;;;;;14.60;9.43;;;7.80;99.90;;;;;;12764982;23;20187;-88
2023/10/09 03:11:54;;;;;;;11.30;8.17;;;7.60;99.90;;;;;;12764685;23;20200;-87
2023/10/09 03:16:57;;;;;;;13.38;8.48;;;7.90;99.90;;;;;;12792179;23;20514;-87
2023/10/09 03:22:01;;;;;;;10.80;9.27;;;7.80;99.90;;;;;;12765041;23;20560;-88
2023/10/09 03:27:04;;;;;;;12.03;8.43;;;7.60;99.90;;;;;;12791481;23;20179;-88
2023/10/09 03:32:07;;;;;;;9.80;6.10;;;7.60;99.90;;;;;;12764429;23;20295;-87
2023/10/09 03:37:21;;;;;;;6.78;6.07;;;7.50;99.90;;;;;;12791971;23;20262;-88
2023/10/09 03:42:24;;;;;;;8.77;6.10;;;7.90;99.90;;;;;;12790196;23;20172;-88
2023/10/09 03:47:27;;;;;;;8.07;5.95;;;8.30;99.90;;;;;;12791270;23;20249;-88
2023/10/09 03:52:30;;;;;;;9.30;6.38;;;8.30;99.90;;;;;;12791189;23;20237;-88
2023/10/09 03:57:33;;;;;;;9.93;6.80;;;8.10;99.90;;;;;;12765639;23;20206;-88
2023/10/09 04:02:36;;;;;;;8.57;5.97;;;8.20;99.90;;;;;;12790489;23;20184;-88
2023/10/09 04:07:39;;;;;;;9.40;5.85;;;8.10;99.90;;;;;;12790628;23;20179;-86
2023/10/09 04:12:41;;;;;;;7.57;6.20;;;8.10;99.90;;;;;;12791325;23;20215;-88
2023/10/09 04:17:44;;;;;;;9.97;6.87;;;7.80;99.90;;;;;;12793680;23;20168;-87
2023/10/09 04:22:50;;;;;;;10.40;6.80;;;8.00;99.90;;;;;;12794584;23;20175;-87
2023/10/09 04:28:09;;;;;;;8.77;6.80;;;8.20;99.90;;;;;;12794086;23;20214;-88
2023/10/09 04:33:35;;;;;;;9.85;6.88;;;8.50;99.90;;;;;;12796032;23;20238;-87
2023/10/09 04:38:38;;;;;;;6.80;5.70;;;8.70;99.90;;;;;;12793764;23;20167;-87
2023/10/09 04:43:44;;;;;;;6.32;5.43;;;8.50;99.90;;;;;;12793231;23;20222;-85
2023/10/09 04:48:47;;;;;;;7.28;5.75;;;8.40;99.90;;;;;;12794119;23;20179;-86
2023/10/09 04:59:18;;;;;;;8.63;6.20;;;8.50;99.90;;;;;;12810835;23;20194;-88
2023/10/09 05:04:39;;;;;;;11.15;6.90;;;8.60;99.90;;;;;;12812456;23;20546;-87
2023/10/09 05:09:55;;;;;;;11.70;8.27;;;8.60;99.90;;;;;;12810752;23;20168;-86
2023/10/09 05:15:13;;;;;;;15.52;9.13;;;9.00;99.90;;;;;;12808633;23;20712;-86
2023/10/09 05:31:06;;;;;;;12.53;9.67;;;7.90;99.90;;;;;;12804364;23;20203;-85
2023/10/09 05:36:31;;;;;;;9.20;5.27;;;7.30;99.90;;;;;;12810188;23;20218;-83
2023/10/09 05:41:52;;;;;;;8.77;5.40;;;7.10;99.90;;;;;;12767682;23;20183;-84
2023/10/09 05:47:31;;;;;;;10.50;6.30;;;8.20;99.90;;;;;;12790136;23;20207;-84
2023/10/09 05:52:42;;;;;;;7.47;5.23;;;9.00;99.90;;;;;;12792236;23;20219;-84
2023/10/09 06:08:12;;;;;;;11.23;6.03;;;9.60;99.90;;;;;;12765712;23;20518;-85
2023/10/09 06:13:37;;;;;;;7.27;5.47;;;9.90;99.90;;;;;;12793023;23;20238;-84
2023/10/09 06:18:41;;;;;;;5.13;3.60;;;9.70;99.90;;;;;;12791534;23;20180;-84
2023/10/09 06:29:17;;;;;;;7.53;6.00;;;10.10;99.90;;;;;;12791514;23;20183;-85
2023/10/09 06:34:22;;;;;;;5.45;3.90;;;9.70;99.90;;;;;;12793308;23;20199;-85
2023/10/09 06:44:52;;;;;;;5.72;4.82;;;10.20;99.90;;;;;;12792223;23;20812;-85
2023/10/09 06:55:48;;;;;;;4.85;3.63;;;10.30;99.90;;;;;;12542659;23;20363;-84
2023/10/09 07:06:24;;;;;;;5.57;4.03;;;10.50;99.90;;;;;;12543107;23;20213;-84
2023/10/09 07:16:57;;;;;;;9.25;5.35;;;10.40;99.90;;;;;;12519165;23;20234;-84
2023/10/09 07:22:03;;;;;;;13.00;6.07;;;10.40;99.90;;;;;;12519162;23;20182;-84
2023/10/09 07:27:15;;;;;;;7.47;5.05;;;10.80;99.90;;;;;;12739362;23;20664;-84
2023/10/09 07:32:21;;;;;;;7.25;4.43;;;10.60;99.90;;;;;;12795548;23;20183;-84
2023/10/09 07:37:30;;;;;;;8.13;5.45;;;10.70;99.90;;;;;;12790563;23;20181;-84
2023/10/09 07:53:14;;;;;;;6.60;4.05;;;10.90;99.90;;;;;;12764562;23;20191;-84
2023/10/09 07:58:24;;;;;;;5.85;4.13;;;11.10;99.90;;;;;;12809151;23;20190;-84
2023/10/09 08:03:32;;;;;;;6.70;5.20;;;11.40;99.90;;;;;;12790929;23;20517;-85
2023/10/09 08:13:49;;;;;;;4.38;3.45;;;11.50;99.90;;;;;;12764544;23;20200;-84
2023/10/09 08:18:52;;;;;;;8.00;5.03;;;11.80;99.90;;;;;;12806513;23;20164;-85
2023/10/09 08:23:54;;;;;;;6.10;4.70;;;11.90;99.90;;;;;;12790272;23;20577;-84
2023/10/09 08:29:16;;;;;;;8.75;6.05;;;12.10;99.90;;;;;;12790435;23;20658;-84
2023/10/09 08:34:25;;;;;;;6.20;5.30;;;12.00;99.80;;;;;;12791609;23;20204;-84
2023/10/09 08:39:35;;;;;;;3.97;3.50;;;12.00;99.90;;;;;;12790233;23;20766;-85
2023/10/09 08:44:44;;;;;;;7.63;6.83;;;12.10;99.90;;;;;;12764349;23;20265;-85
2023/10/09 08:49:47;;;;;;;6.75;5.30;;;11.70;98.90;;;;;;12809519;23;20195;-85
2023/10/09 08:54:49;;;;;;;6.35;5.03;;;11.80;99.90;;;;;;12791742;23;20242;-85
2023/10/09 08:59:52;;;;;;;9.68;4.88;;;12.20;99.90;;;;;;12791598;23;20171;-85
2023/10/09 09:04:55;;;;;;;5.30;4.15;;;12.30;99.90;;;;;;12767252;23;20180;-85
2023/10/09 09:10:17;;;;;;;5.57;3.67;;;12.50;99.90;;;;;;12813881;23;20549;-85
2023/10/09 09:15:22;;;;;;;6.80;3.85;;;12.70;99.30;;;;;;12768319;23;20199;-85
2023/10/09 09:20:34;;;;;;;5.43;4.00;;;13.20;96.80;;;;;;12743713;23;20171;-85
2023/10/09 09:25:47;;;;;;;5.15;2.67;;;13.40;96.90;;;;;;12767299;23;20179;-85
2023/10/09 09:30:51;;;;;;;6.33;3.33;;;13.70;95.90;;;;;;12794582;23;20518;-85
2023/10/09 09:35:58;;;;;;;4.72;3.03;;;13.90;95.00;;;;;;12768013;23;20203;-85
2023/10/09 09:41:02;;;;;;;5.00;3.67;;;14.50;92.60;;;;;;12794237;23;20218;-85
2023/10/09 09:46:07;;;;;;;4.63;3.05;;;14.60;91.60;;;;;;12791684;23;20231;-85
2023/10/09 09:51:14;;;;;;;3.67;2.78;;;14.60;82.40;;;;;;12792493;23;20573;-85
2023/10/09 09:56:24;;;;;;;3.17;1.77;;;14.30;89.40;;;;;;12811748;23;20192;-85
2023/10/09 10:01:32;;;;;;;3.10;1.97;;;14.00;79.30;;;;;;12791185;23;20179;-85
2023/10/09 10:06:35;;;;;;;3.15;2.15;;;14.00;78.40;;;;;;12811470;23;20585;-85
2023/10/09 10:11:51;;;;;;;3.60;2.78;;;14.10;80.70;;;;;;12792190;23;20214;-85
2023/10/09 10:17:27;;;;;;;2.67;2.15;;;14.20;82.50;;;;;;12793371;23;20167;-85
2023/10/09 10:22:29;;;;;;;3.63;2.83;;;14.20;82.70;;;;;;12766637;23;20180;-85
2023/10/09 10:27:44;;;;;;;4.03;2.45;;;14.20;86.40;;;;;;12790957;23;20208;-85
2023/10/09 10:33:09;;;;;;;3.28;2.40;;;14.30;80.10;;;;;;12766466;23;20191;-85
2023/10/09 10:38:42;;;;;;;3.65;2.30;;;14.30;84.70;;;;;;12785581;23;20168;-85
2023/10/09 10:43:54;;;;;;;2.88;2.50;;;14.30;84.30;;;;;;12741452;23;20546;-85
2023/10/09 10:49:25;;;;;;;2.63;1.92;;;14.30;84.00;;;;;;12810115;23;20275;-85
2023/10/09 10:59:41;;;;;;;3.35;2.10;;;14.60;84.10;;;;;;12765187;23;20522;-85
2023/10/09 11:04:53;;;;;;;4.38;2.28;;;14.50;84.50;;;;;;12790100;23;20558;-85
2023/10/09 11:20:26;;;;;;;3.42;2.50;;;14.00;86.60;;;;;;12808819;23;20167;-84
2023/10/09 11:25:30;;;;;;;2.78;2.33;;;13.60;87.50;;;;;;12791958;23;20180;-84
2023/10/09 11:30:34;;;;;;;2.88;2.20;;;13.80;81.90;;;;;;12764525;23;20226;-84
2023/10/09 11:35:37;;;;;;;3.70;1.95;;;13.50;86.70;;;;;;12808141;23;20187;-84
2023/10/09 11:46:11;;;;;;;2.80;2.30;;;13.80;85.10;;;;;;12800974;23;20195;-84
2023/10/09 11:51:19;;;;;;;2.53;1.97;;;14.00;90.60;;;;;;12764599;23;20179;-84
2023/10/09 11:56:24;;;;;;;2.72;2.22;;;14.00;86.10;;;;;;12763574;23;20196;-84
2023/10/09 12:01:35;;;;;;;3.42;2.33;;;14.00;90.40;;;;;;12789911;23;20210;-84
2023/10/09 12:06:42;;;;;;;3.45;2.70;;;14.00;91.90;;;;;;12789315;23;20175;-84
2023/10/09 12:11:52;;;;;;;3.03;2.58;;;13.50;85.30;;;;;;12790173;23;20175;-84
2023/10/09 12:17:06;;;;;;;3.30;2.22;;;13.30;84.20;;;;;;12763552;23;20172;-86
2023/10/09 12:22:16;;;;;;;3.78;3.15;;;13.40;91.80;;;;;;12763698;23;20179;-86
2023/10/09 12:27:20;;;;;;;4.53;3.28;;;13.30;86.30;;;;;;12808562;23;20194;-86
2023/10/09 12:32:22;;;;;;;3.03;2.45;;;13.40;92.20;;;;;;12788365;23;20179;-86
2023/10/09 12:37:25;;;;;;;4.47;3.92;;;13.50;92.50;;;;;;12792039;23;20211;-86
2023/10/09 12:42:28;;;;;;;5.90;5.18;;;13.80;92.80;;;;;;12793948;23;20187;-85
2023/10/09 12:47:32;;;;;;;7.60;5.30;;;13.80;88.60;;;;;;12768403;23;20203;-86
2023/10/09 12:52:37;;;;;;;4.63;3.67;;;13.40;89.50;;;;;;12768644;23;20226;-86
2023/10/09 12:57:40;;;;;;;5.35;3.22;;;13.40;90.50;;;;;;12793929;23;20298;-86
2023/10/09 13:02:44;;;;;;;5.85;5.28;;;13.40;92.10;;;;;;12794749;23;20168;-86
2023/10/09 13:07:47;;;;;;;6.30;4.63;;;13.40;89.90;;;;;;12791926;23;20568;-86
2023/10/09 13:12:55;;;;;;;7.90;4.50;;;13.30;91.50;;;;;;12792879;23;20256;-86
2023/10/09 13:17:57;;;;;;;3.47;3.17;;;13.40;93.40;;;;;;12791845;23;20172;-86
2023/10/09 13:23:01;;;;;;;6.15;4.38;;;13.30;91.80;;;;;;12766305;23;20223;-86
2023/10/09 13:28:04;;;;;;;4.35;3.65;;;13.40;90.90;;;;;;12791779;23;20230;-86
2023/10/09 13:33:07;;;;;;;4.87;3.47;;;13.50;90.70;;;;;;12766772;23;20200;-86
2023/10/09 13:38:10;;;;;;;3.97;3.50;;;13.30;90.20;;;;;;12743000;23;20551;-86
2023/10/09 13:43:16;;;;;;;4.93;4.43;;;13.50;93.50;;;;;;12790185;23;20233;-86
2023/10/09 13:48:20;;;;;;;3.80;3.38;;;13.30;90.00;;;;;;12765601;23;20266;-84
2023/10/09 13:53:26;;;;;;;4.20;3.80;;;13.40;93.00;;;;;;12743676;23;20277;-84
2023/10/09 13:58:31;;;;;;;5.57;4.03;;;13.60;91.10;;;;;;12811332;23;20164;-84
2023/10/09 14:03:33;;;;;;;7.38;6.60;;;13.70;92.70;;;;;;12792615;23;20183;-84
2023/10/09 14:08:42;;;;;;;5.13;4.35;;;13.80;85.40;;;;;;12767334;23;20238;-84
2023/10/09 14:13:44;;;;;;;5.72;5.03;;;13.50;90.40;;;;;;12742748;23;20655;-84
2023/10/09 14:19:00;;;;;;;3.47;3.17;;;13.30;87.60;;;;;;12767102;23;20179;-84
2023/10/09 14:24:15;;;;;;;6.23;4.77;;;13.40;92.70;;;;;;12811187;23;20200;-84
2023/10/09 14:29:20;;;;;;;5.90;5.32;;;13.10;89.20;;;;;;12792193;23;20234;-84
2023/10/09 14:34:35;;;;;;;4.22;3.83;;;12.80;92.40;;;;;;12766373;23;20195;-84
2023/10/09 14:39:39;;;;;;;4.87;4.43;;;12.80;93.00;;;;;;12766720;23;20246;-84
2023/10/09 14:44:44;;;;;;;9.32;5.75;;;12.70;92.90;;;;;;12766170;23;20208;-84
2023/10/09 14:49:48;;;;;;;7.65;5.00;;;12.50;92.40;;;;;;12811069;23;20176;-84
2023/10/09 14:54:51;;;;;;;5.10;4.60;;;12.40;92.40;;;;;;12785262;23;20191;-84
2023/10/09 14:59:53;;;;;;;6.00;5.37;;;12.20;92.40;;;;;;12766125;23;20258;-84
2023/10/09 15:04:56;;;;;;;7.18;4.28;;;11.80;93.00;;;;;;12791607;23;20183;-84
2023/10/09 15:10:03;;;;;;;16.25;11.27;;;11.80;94.80;;;;;;12791146;23;20171;-84
2023/10/09 15:15:13;;;;;;;14.18;9.80;;;11.80;94.30;;;;;;12809137;23;20725;-84
2023/10/09 15:20:16;;;;;;;8.35;6.28;;;11.90;97.40;;;;;;12783123;23;20167;-84
2023/10/09 15:25:19;;;;;;;6.20;5.60;;;11.80;95.70;;;;;;12793063;23;20255;-84
2023/10/09 15:30:22;;;;;;;9.18;5.25;;;11.60;95.20;;;;;;12792335;23;20565;-89
2023/10/09 15:35:28;;;;;;;8.43;5.78;;;11.40;98.80;;;;;;12766592;23;20829;-91
2023/10/09 15:40:34;;;;;;;5.47;4.57;;;11.40;97.10;;;;;;12810495;23;20164;-91
2023/10/09 15:45:42;;;;;;;8.83;6.33;;;11.50;98.00;;;;;;12804462;23;20192;-92
2023/10/09 15:50:48;;;;;;;6.13;5.30;;;11.30;96.70;;;;;;12791942;23;20179;-92
2023/10/09 15:55:53;;;;;;;6.70;5.33;;;11.10;98.90;;;;;;12766152;23;20250;-92
2023/10/09 16:00:56;;;;;;;11.27;7.78;;;11.30;99.70;;;;;;12765521;23;20176;-91
2023/10/09 16:05:59;;;;;;;10.80;7.53;;;11.10;99.00;;;;;;12740714;23;20179;-91
2023/10/09 16:11:01;;;;;;;8.52;5.03;;;11.10;99.90;;;;;;12767206;23;20179;-92
2023/10/09 16:16:07;;;;;;;9.57;6.00;;;11.00;99.90;;;;;;12796628;23;20187;-91
2023/10/09 16:21:12;;;;;;;7.60;6.07;;;10.90;99.90;;;;;;12794155;23;20557;-91
2023/10/09 16:26:16;;;;;;;9.97;8.40;;;11.10;99.90;;;;;;12769101;23;20206;-92
2023/10/09 16:31:18;;;;;;;13.63;9.10;;;10.80;99.90;;;;;;12795821;23;20514;-91
2023/10/09 16:36:21;;;;;;;14.97;9.47;;;10.70;99.90;;;;;;12796223;23;20191;-91
2023/10/09 16:41:25;;;;;;;15.85;10.27;;;10.60;99.90;;;;;;12795851;23;20164;-92
2023/10/09 16:46:28;;;;;;;18.88;11.38;;;10.40;99.90;;;;;;12768704;23;20266;-91
2023/10/09 16:51:31;;;;;;;36.37;18.90;;;10.40;99.90;;;;;;12795777;23;20241;-91
2023/10/09 16:56:33;;;;;;;29.73;17.13;;;10.30;99.90;;;;;;12795466;23;20666;-91
2023/10/09 17:01:36;;;;;;;32.90;15.43;;;10.40;99.90;;;;;;12794625;23;20176;-88
2023/10/09 17:06:39;;;;;;;17.57;12.47;;;10.50;99.90;;;;;;12795157;23;20172;-91
2023/10/09 17:11:41;;;;;;;27.67;15.87;;;10.40;99.90;;;;;;12795590;23;20230;-91
2023/10/09 17:16:47;;;;;;;31.70;17.17;;;10.50;99.90;;;;;;12795030;23;20582;-90
2023/10/09 17:21:50;;;;;;;24.10;14.10;;;10.60;99.90;;;;;;12767423;23;20175;-91
2023/10/09 17:26:55;;;;;;;19.93;12.07;;;10.50;99.90;;;;;;12767291;23;20234;-91
2023/10/09 17:31:58;;;;;;;16.70;10.57;;;10.40;99.90;;;;;;12793091;23;20214;-91
2023/10/09 17:37:01;;;;;;;15.17;10.83;;;10.30;99.90;;;;;;12794421;23;20243;-91
2023/10/09 17:42:04;;;;;;;15.25;11.32;;;10.40;99.90;;;;;;12793224;23;20556;-90
2023/10/09 17:47:07;;;;;;;10.47;7.63;;;10.40;99.90;;;;;;12767072;23;20203;-91
2023/10/09 17:52:11;;;;;;;20.63;12.40;;;10.70;99.90;;;;;;12793567;23;20180;-90
2023/10/09 17:57:14;;;;;;;18.00;12.20;;;10.60;99.90;;;;;;12813061;23;20242;-91
2023/10/09 18:02:16;;;;;;;14.32;10.75;;;10.40;99.90;;;;;;12792719;23;20199;-90
2023/10/09 18:07:23;;;;;;;16.70;11.83;;;10.10;99.90;;;;;;12766803;23;20808;-91
2023/10/09 18:12:25;;;;;;;18.27;13.07;;;10.00;99.90;;;;;;12742591;23;20176;-91
2023/10/09 18:17:28;;;;;;;18.10;13.30;;;9.80;99.90;;;;;;12792390;23;20253;-91
2023/10/09 18:22:31;;;;;;;18.55;14.02;;;9.60;99.90;;;;;;12741810;23;20171;-90
2023/10/09 18:27:34;;;;;;;22.52;14.80;;;9.50;99.90;;;;;;12767453;23;20171;-90
2023/10/09 18:32:37;;;;;;;17.10;13.87;;;9.50;99.90;;;;;;12793635;23;20222;-90
2023/10/09 18:37:39;;;;;;;27.57;15.37;;;9.50;99.90;;;;;;12767363;23;20527;-91
2023/10/09 18:42:42;;;;;;;16.90;12.13;;;9.00;99.90;;;;;;12767150;23;20172;-89
2023/10/09 18:47:45;;;;;;;25.67;15.67;;;8.90;99.90;;;;;;12765690;23;20555;-90
2023/10/09 18:52:51;;;;;;;19.13;14.50;;;8.90;99.90;;;;;;12792954;23;20506;-90
2023/10/09 18:57:54;;;;;;;21.00;14.93;;;8.80;99.90;;;;;;12792278;23;20249;-90
2023/10/09 19:02:59;;;;;;;16.97;12.43;;;8.60;99.90;;;;;;12792489;23;20176;-89
2023/10/09 19:08:02;;;;;;;25.73;17.23;;;8.80;99.90;;;;;;12792903;23;20642;-87
2023/10/09 19:13:10;;;;;;;17.00;13.17;;;8.60;99.90;;;;;;12793105;23;20172;-89
2023/10/09 19:18:12;;;;;;;17.30;13.40;;;8.30;99.90;;;;;;12765486;23;20230;-90
2023/10/09 19:23:15;;;;;;;21.57;15.63;;;8.30;99.90;;;;;;12792985;23;20778;-91
2023/10/09 19:28:19;;;;;;;28.00;18.83;;;8.20;99.90;;;;;;12766703;23;20168;-91
2023/10/09 19:33:22;;;;;;;23.77;16.37;;;8.30;99.90;;;;;;12791755;23;20526;-91
2023/10/09 19:38:24;;;;;;;34.60;21.83;;;8.20;99.90;;;;;;12792423;23;20192;-90
2023/10/09 19:43:27;;;;;;;42.50;28.27;;;8.20;99.90;;;;;;12792971;23;20168;-92
2023/10/09 19:48:33;;;;;;;45.03;26.77;;;8.30;99.90;;;;;;12766494;23;20184;-93
2023/10/09 19:53:36;;;;;;;35.67;21.90;;;8.00;99.90;;;;;;12767256;23;20179;-92
2023/10/09 19:58:40;;;;;;;43.93;25.30;;;7.90;99.90;;;;;;12792727;23;20195;-91
2023/10/09 20:03:43;;;;;;;45.47;26.37;;;7.80;99.90;;;;;;12791974;23;20230;-91
2023/10/09 20:08:47;;;;;;;34.67;22.47;;;7.60;99.90;;;;;;12810233;23;20171;-92
2023/10/09 20:13:50;;;;;;;32.13;21.37;;;7.60;99.90;;;;;;12792079;23;20172;-92
2023/10/09 20:18:54;;;;;;;29.50;20.37;;;8.10;99.90;;;;;;12791020;23;20258;-91
2023/10/09 20:24:00;;;;;;;23.70;16.33;;;8.10;99.90;;;;;;12792293;23;20566;-91
2023/10/09 20:29:03;;;;;;;42.57;25.93;;;8.40;99.90;;;;;;12765744;23;20175;-91
2023/10/09 20:34:09;;;;;;;45.50;25.80;;;8.20;99.90;;;;;;12764873;23;20179;-91
2023/10/09 20:39:12;;;;;;;37.27;23.27;;;7.90;99.90;;;;;;12791826;23;20176;-92
2023/10/09 20:44:15;;;;;;;42.53;24.27;;;7.60;99.90;;;;;;12791402;23;20257;-92
2023/10/09 20:49:17;;;;;;;43.73;25.73;;;7.70;99.90;;;;;;12791149;23;20315;-92
2023/10/09 20:54:21;;;;;;;33.90;20.67;;;7.50;99.90;;;;;;12765250;23;20175;-91
2023/10/09 20:59:23;;;;;;;33.23;20.20;;;7.40;99.90;;;;;;12767626;23;20487;-90
2023/10/09 21:04:26;;;;;;;23.23;16.00;;;7.40;99.90;;;;;;12795822;23;20183;-92
2023/10/09 21:09:28;;;;;;;38.00;23.27;;;7.20;99.90;;;;;;12796479;23;20171;-92
2023/10/09 21:14:31;;;;;;;31.77;20.07;;;7.00;99.90;;;;;;12812097;23;20199;-96
2023/10/09 21:19:34;;;;;;;35.73;21.93;;;6.90;99.90;;;;;;12830428;23;20203;-95
2023/10/09 21:24:46;;;;;;;38.97;23.87;;;6.90;99.90;;;;;;12818362;23;20179;-96
2023/10/09 21:29:55;;;;;;;38.10;23.07;;;6.50;99.90;;;;;;12849671;23;20206;-96
2023/10/09 21:35:58;;;;;;;44.93;24.93;;;6.60;99.90;;;;;;12810318;23;20289;-96
2023/10/09 21:41:31;;;;;;;41.43;24.90;;;6.60;99.90;;;;;;12686037;23;20578;-81
2023/10/09 21:46:34;;;;;;;38.30;23.83;;;6.30;99.90;;;;;;12704575;23;20188;-81
2023/10/09 21:51:37;;;;;;;28.43;17.57;;;6.20;99.90;;;;;;12731495;23;20227;-81
2023/10/09 21:56:39;;;;;;;41.83;26.13;;;6.20;99.90;;;;;;12704200;23;20671;-81
2023/10/09 22:01:42;;;;;;;36.63;23.57;;;6.10;99.90;;;;;;12704345;23;20236;-81
2023/10/09 22:06:44;;;;;;;40.93;23.77;;;6.10;99.90;;;;;;12704591;23;20478;-81
2023/10/09 22:11:47;;;;;;;43.37;25.30;;;6.10;99.90;;;;;;12729639;23;20243;-81
2023/10/09 22:16:49;;;;;;;37.33;21.70;;;6.00;99.90;;;;;;12731003;23;20255;-81
2023/10/09 22:21:56;;;;;;;33.27;21.63;;;5.90;99.90;;;;;;12703378;23;20168;-81
2023/10/09 22:26:58;;;;;;;34.17;19.03;;;6.00;99.90;;;;;;12747223;23;20196;-81
2023/10/09 22:32:01;;;;;;;27.97;17.33;;;6.00;99.90;;;;;;12730571;23;20172;-81
2023/10/09 22:37:12;;;;;;;25.77;16.63;;;5.90;99.90;;;;;;12730499;23;20204;-81
2023/10/09 22:42:16;;;;;;;18.90;12.33;;;5.80;99.90;;;;;;12729652;23;20172;-81
2023/10/09 22:47:22;;;;;;;26.10;17.50;;;6.10;99.90;;;;;;12729487;23;20247;-80
2023/10/09 22:52:25;;;;;;;25.07;16.57;;;6.00;99.90;;;;;;12747606;23;20173;-81
2023/10/09 22:57:28;;;;;;;22.60;13.57;;;5.70;99.90;;;;;;12730704;23;20196;-81
2023/10/09 23:02:42;;;;;;;29.90;17.43;;;6.00;99.90;;;;;;12730901;23;20555;-81
2023/10/09 23:07:58;;;;;;;19.93;13.80;;;6.20;99.90;;;;;;12722530;23;20411;-81
2023/10/09 23:13:14;;;;;;;27.50;18.20;;;6.00;99.90;;;;;;12747577;23;20171;-81
2023/10/09 23:18:32;;;;;;;24.63;16.70;;;5.80;99.90;;;;;;12735650;23;20570;-81
2023/10/09 23:23:40;;;;;;;27.80;17.13;;;5.60;99.90;;;;;;12704601;23;20701;-81
2023/10/09 23:28:50;;;;;;;23.17;14.80;;;5.50;99.90;;;;;;12747292;23;20172;-81
2023/10/09 23:33:57;;;;;;;24.00;15.97;;;5.40;99.90;;;;;;12733487;23;20202;-81
2023/10/09 23:39:09;;;;;;;25.37;16.53;;;5.10;99.90;;;;;;12729040;23;20590;-80
2023/10/09 23:44:20;;;;;;;22.60;14.37;;;5.10;99.90;;;;;;12703035;23;20231;-80
2023/10/09 23:49:24;;;;;;;24.17;14.57;;;5.20;99.90;;;;;;12729955;23;20243;-81
2023/10/09 23:54:27;;;;;;;28.70;16.67;;;5.00;99.90;;;;;;12730013;23;20180;-80
2023/10/09 23:59:38;;;;;;;23.17;16.17;;;4.90;99.90;;;;;;12703595;23;20247;-80
